sensor_id;sensor_type;location;lat;lon;timestamp;temperature;humidity
25108;DHT22;13090;53.422;7.670;2022-09-03T00:02:12;18.00;55.00
25108;DHT22;13090;53.422;7.670;2022-09-03T00:07:21;17.70;56.10
25108;DHT22;13090;53.422;7.670;2022-09-03T00:12:31;17.50;56.60
25108;DHT22;13090;53.422;7.670;2022-09-03T00:17:37;17.40;57.10
25108;DHT22;13090;53.422;7.670;2022-09-03T00:22:45;17.20;57.50
25108;DHT22;13090;53.422;7.670;2022-09-03T00:27:52;17.10;57.40
25108;DHT22;13090;53.422;7.670;2022-09-03T00:33:00;17.10;57.60
25108;DHT22;13090;53.422;7.670;2022-09-03T00:38:06;17.00;58.00
25108;DHT22;13090;53.422;7.670;2022-09-03T00:43:19;16.90;57.60
25108;DHT22;13090;53.422;7.670;2022-09-03T00:48:29;16.80;58.70
25108;DHT22;13090;53.422;7.670;2022-09-03T00:53:39;16.70;59.20
25108;DHT22;13090;53.422;7.670;2022-09-03T00:58:55;16.60;60.00
25108;DHT22;13090;53.422;7.670;2022-09-03T01:04:11;16.60;60.30
25108;DHT22;13090;53.422;7.670;2022-09-03T01:09:28;16.50;59.90
25108;DHT22;13090;53.422;7.670;2022-09-03T01:14:42;16.50;61.20
25108;DHT22;13090;53.422;7.670;2022-09-03T01:20:18;16.50;60.60
25108;DHT22;13090;53.422;7.670;2022-09-03T01:25:35;16.50;60.70
25108;DHT22;13090;53.422;7.670;2022-09-03T01:30:43;16.40;60.90
25108;DHT22;13090;53.422;7.670;2022-09-03T01:35:48;16.40;61.10
25108;DHT22;13090;53.422;7.670;2022-09-03T01:41:03;16.40;61.20
25108;DHT22;13090;53.422;7.670;2022-09-03T01:46:15;16.40;61.10
25108;DHT22;13090;53.422;7.670;2022-09-03T01:51:23;16.40;61.30
25108;DHT22;13090;53.422;7.670;2022-09-03T01:56:36;16.40;61.10
25108;DHT22;13090;53.422;7.670;2022-09-03T02:01:51;16.40;61.10
25108;DHT22;13090;53.422;7.670;2022-09-03T02:06:58;16.30;60.40
25108;DHT22;13090;53.422;7.670;2022-09-03T02:12:05;16.30;60.30
25108;DHT22;13090;53.422;7.670;2022-09-03T02:17:11;16.20;59.90
25108;DHT22;13090;53.422;7.670;2022-09-03T02:22:13;16.20;60.70
25108;DHT22;13090;53.422;7.670;2022-09-03T02:27:16;16.00;63.00
25108;DHT22;13090;53.422;7.670;2022-09-03T02:32:21;15.90;62.80
25108;DHT22;13090;53.422;7.670;2022-09-03T02:37:24;15.90;62.50
25108;DHT22;13090;53.422;7.670;2022-09-03T02:42:27;15.90;62.60
25108;DHT22;13090;53.422;7.670;2022-09-03T02:47:32;15.90;62.70
25108;DHT22;13090;53.422;7.670;2022-09-03T02:52:37;15.80;62.80
25108;DHT22;13090;53.422;7.670;2022-09-03T02:57:40;15.80;62.70
25108;DHT22;13090;53.422;7.670;2022-09-03T03:02:45;15.80;62.10
25108;DHT22;13090;53.422;7.670;2022-09-03T03:07:47;15.80;62.30
25108;DHT22;13090;53.422;7.670;2022-09-03T03:12:50;15.70;63.30
25108;DHT22;13090;53.422;7.670;2022-09-03T03:17:57;15.70;63.40
25108;DHT22;13090;53.422;7.670;2022-09-03T03:23:01;15.70;64.20
25108;DHT22;13090;53.422;7.670;2022-09-03T03:28:04;15.70;63.90
25108;DHT22;13090;53.422;7.670;2022-09-03T03:33:09;15.70;63.90
25108;DHT22;13090;53.422;7.670;2022-09-03T03:38:12;15.80;64.30
25108;DHT22;13090;53.422;7.670;2022-09-03T03:43:15;15.70;63.50
25108;DHT22;13090;53.422;7.670;2022-09-03T03:48:19;15.70;63.60
25108;DHT22;13090;53.422;7.670;2022-09-03T03:53:21;15.70;63.70
25108;DHT22;13090;53.422;7.670;2022-09-03T03:58:24;15.70;63.80
25108;DHT22;13090;53.422;7.670;2022-09-03T04:03:28;15.70;62.40
25108;DHT22;13090;53.422;7.670;2022-09-03T04:08:33;15.60;62.50
25108;DHT22;13090;53.422;7.670;2022-09-03T04:13:37;15.60;62.70
25108;DHT22;13090;53.422;7.670;2022-09-03T04:18:42;15.50;62.50
25108;DHT22;13090;53.422;7.670;2022-09-03T04:23:46;15.40;63.20
25108;DHT22;13090;53.422;7.670;2022-09-03T04:28:49;15.30;63.30
25108;DHT22;13090;53.422;7.670;2022-09-03T04:33:53;15.20;63.20
25108;DHT22;13090;53.422;7.670;2022-09-03T04:38:58;15.10;63.10
25108;DHT22;13090;53.422;7.670;2022-09-03T04:44:01;15.00;63.10
25108;DHT22;13090;53.422;7.670;2022-09-03T04:49:06;15.00;62.80
25108;DHT22;13090;53.422;7.670;2022-09-03T04:54:09;14.90;62.70
25108;DHT22;13090;53.422;7.670;2022-09-03T04:59:11;14.90;62.60
25108;DHT22;13090;53.422;7.670;2022-09-03T05:04:15;14.90;63.00
25108;DHT22;13090;53.422;7.670;2022-09-03T05:09:18;14.90;63.10
25108;DHT22;13090;53.422;7.670;2022-09-03T05:14:21;14.90;63.60
25108;DHT22;13090;53.422;7.670;2022-09-03T05:19:29;14.80;63.20
25108;DHT22;13090;53.422;7.670;2022-09-03T05:24:31;14.90;64.50
25108;DHT22;13090;53.422;7.670;2022-09-03T05:29:34;15.20;64.40
25108;DHT22;13090;53.422;7.670;2022-09-03T05:34:39;15.50;63.30
25108;DHT22;13090;53.422;7.670;2022-09-03T05:39:42;15.70;63.00
25108;DHT22;13090;53.422;7.670;2022-09-03T05:44:44;16.00;63.20
25108;DHT22;13090;53.422;7.670;2022-09-03T05:49:50;16.40;63.10
25108;DHT22;13090;53.422;7.670;2022-09-03T05:54:53;16.90;62.30
25108;DHT22;13090;53.422;7.670;2022-09-03T05:59:55;17.10;61.00
25108;DHT22;13090;53.422;7.670;2022-09-03T06:04:59;17.30;60.40
25108;DHT22;13090;53.422;7.670;2022-09-03T06:10:02;17.20;60.20
25108;DHT22;13090;53.422;7.670;2022-09-03T06:15:07;17.30;60.60
25108;DHT22;13090;53.422;7.670;2022-09-03T06:20:12;17.40;60.50
25108;DHT22;13090;53.422;7.670;2022-09-03T06:25:14;17.50;60.00
25108;DHT22;13090;53.422;7.670;2022-09-03T06:30:18;17.80;60.10
25108;DHT22;13090;53.422;7.670;2022-09-03T06:35:22;18.30;58.90
25108;DHT22;13090;53.422;7.670;2022-09-03T06:40:25;18.50;58.20
25108;DHT22;13090;53.422;7.670;2022-09-03T06:45:28;18.90;57.90
25108;DHT22;13090;53.422;7.670;2022-09-03T06:50:32;19.40;56.50
25108;DHT22;13090;53.422;7.670;2022-09-03T06:55:36;19.90;54.80
25108;DHT22;13090;53.422;7.670;2022-09-03T07:00:38;20.10;54.50
25108;DHT22;13090;53.422;7.670;2022-09-03T07:05:43;20.30;53.70
25108;DHT22;13090;53.422;7.670;2022-09-03T07:10:47;20.40;53.30
25108;DHT22;13090;53.422;7.670;2022-09-03T07:15:58;20.70;52.50
25108;DHT22;13090;53.422;7.670;2022-09-03T07:21:04;21.20;51.60
25108;DHT22;13090;53.422;7.670;2022-09-03T07:26:10;21.50;51.00
25108;DHT22;13090;53.422;7.670;2022-09-03T07:31:15;21.70;50.60
25108;DHT22;13090;53.422;7.670;2022-09-03T07:36:20;21.60;50.50
25108;DHT22;13090;53.422;7.670;2022-09-03T07:41:24;21.60;50.40
25108;DHT22;13090;53.422;7.670;2022-09-03T07:46:30;21.50;50.50
25108;DHT22;13090;53.422;7.670;2022-09-03T07:51:36;21.50;50.70
25108;DHT22;13090;53.422;7.670;2022-09-03T07:56:39;21.40;50.50
25108;DHT22;13090;53.422;7.670;2022-09-03T08:01:42;21.50;50.80
25108;DHT22;13090;53.422;7.670;2022-09-03T08:06:46;21.60;50.90
25108;DHT22;13090;53.422;7.670;2022-09-03T08:11:49;21.90;50.20
25108;DHT22;13090;53.422;7.670;2022-09-03T08:16:51;22.20;49.80
25108;DHT22;13090;53.422;7.670;2022-09-03T08:21:56;22.60;50.30
25108;DHT22;13090;53.422;7.670;2022-09-03T08:26:59;23.00;49.00
25108;DHT22;13090;53.422;7.670;2022-09-03T08:32:03;23.40;48.00
25108;DHT22;13090;53.422;7.670;2022-09-03T08:37:08;23.60;47.10
25108;DHT22;13090;53.422;7.670;2022-09-03T08:42:24;23.80;46.70
25108;DHT22;13090;53.422;7.670;2022-09-03T08:47:33;23.90;46.10
25108;DHT22;13090;53.422;7.670;2022-09-03T08:52:41;24.10;45.30
25108;DHT22;13090;53.422;7.670;2022-09-03T08:57:48;24.30;44.50
25108;DHT22;13090;53.422;7.670;2022-09-03T09:03:14;24.50;45.40
25108;DHT22;13090;53.422;7.670;2022-09-03T09:08:30;24.70;43.90
25108;DHT22;13090;53.422;7.670;2022-09-03T09:13:41;24.90;44.50
25108;DHT22;13090;53.422;7.670;2022-09-03T09:18:59;25.20;44.50
25108;DHT22;13090;53.422;7.670;2022-09-03T09:24:20;25.50;42.90
25108;DHT22;13090;53.422;7.670;2022-09-03T09:29:28;25.70;42.90
25108;DHT22;13090;53.422;7.670;2022-09-03T09:34:34;26.00;43.50
25108;DHT22;13090;53.422;7.670;2022-09-03T09:39:52;26.30;41.70
25108;DHT22;13090;53.422;7.670;2022-09-03T09:45:09;26.40;41.50
25108;DHT22;13090;53.422;7.670;2022-09-03T09:50:18;26.50;40.00
25108;DHT22;13090;53.422;7.670;2022-09-03T09:55:29;26.40;38.50
25108;DHT22;13090;53.422;7.670;2022-09-03T10:00:32;26.50;39.40
25108;DHT22;13090;53.422;7.670;2022-09-03T10:05:38;26.60;39.60
25108;DHT22;13090;53.422;7.670;2022-09-03T10:10:46;26.60;38.00
25108;DHT22;13090;53.422;7.670;2022-09-03T10:15:57;26.50;37.40
25108;DHT22;13090;53.422;7.670;2022-09-03T10:21:07;26.50;37.80
25108;DHT22;13090;53.422;7.670;2022-09-03T10:26:19;26.50;37.20
25108;DHT22;13090;53.422;7.670;2022-09-03T10:31:49;26.40;37.60
25108;DHT22;13090;53.422;7.670;2022-09-03T10:37:01;26.40;37.10
25108;DHT22;13090;53.422;7.670;2022-09-03T10:42:18;26.50;38.20
25108;DHT22;13090;53.422;7.670;2022-09-03T10:47:36;26.70;38.10
25108;DHT22;13090;53.422;7.670;2022-09-03T10:53:04;26.90;37.90
25108;DHT22;13090;53.422;7.670;2022-09-03T10:58:24;27.00;36.80
25108;DHT22;13090;53.422;7.670;2022-09-03T11:03:44;27.00;35.90
25108;DHT22;13090;53.422;7.670;2022-09-03T11:08:53;27.10;37.20
25108;DHT22;13090;53.422;7.670;2022-09-03T11:14:01;27.30;36.30
25108;DHT22;13090;53.422;7.670;2022-09-03T11:19:06;27.30;35.30
25108;DHT22;13090;53.422;7.670;2022-09-03T11:24:13;27.30;35.70
25108;DHT22;13090;53.422;7.670;2022-09-03T11:29:21;27.50;35.80
25108;DHT22;13090;53.422;7.670;2022-09-03T11:34:29;27.60;34.70
25108;DHT22;13090;53.422;7.670;2022-09-03T11:39:35;27.70;34.90
25108;DHT22;13090;53.422;7.670;2022-09-03T11:44:43;27.80;34.60
25108;DHT22;13090;53.422;7.670;2022-09-03T11:50:04;27.70;33.20
25108;DHT22;13090;53.422;7.670;2022-09-03T11:55:08;27.60;34.20
25108;DHT22;13090;53.422;7.670;2022-09-03T12:00:14;27.60;33.30
25108;DHT22;13090;53.422;7.670;2022-09-03T12:05:23;27.60;34.00
25108;DHT22;13090;53.422;7.670;2022-09-03T12:10:38;27.50;33.00
25108;DHT22;13090;53.422;7.670;2022-09-03T12:21:22;27.40;33.80
25108;DHT22;13090;53.422;7.670;2022-09-03T12:26:27;27.40;34.20
25108;DHT22;13090;53.422;7.670;2022-09-03T12:31:42;27.30;33.90
25108;DHT22;13090;53.422;7.670;2022-09-03T12:36:47;27.20;34.10
25108;DHT22;13090;53.422;7.670;2022-09-03T12:41:57;27.00;33.80
25108;DHT22;13090;53.422;7.670;2022-09-03T12:47:05;26.90;34.20
25108;DHT22;13090;53.422;7.670;2022-09-03T12:52:31;26.90;35.30
25108;DHT22;13090;53.422;7.670;2022-09-03T12:57:37;26.90;34.80
25108;DHT22;13090;53.422;7.670;2022-09-03T13:02:48;26.80;34.40
25108;DHT22;13090;53.422;7.670;2022-09-03T13:07:56;26.60;34.80
25108;DHT22;13090;53.422;7.670;2022-09-03T13:13:01;26.60;34.80
25108;DHT22;13090;53.422;7.670;2022-09-03T13:18:20;26.50;36.00
25108;DHT22;13090;53.422;7.670;2022-09-03T13:23:50;26.50;34.90
25108;DHT22;13090;53.422;7.670;2022-09-03T13:29:21;26.50;35.50
25108;DHT22;13090;53.422;7.670;2022-09-03T13:34:31;26.40;35.90
25108;DHT22;13090;53.422;7.670;2022-09-03T13:39:39;26.40;36.60
25108;DHT22;13090;53.422;7.670;2022-09-03T13:44:46;26.40;35.80
25108;DHT22;13090;53.422;7.670;2022-09-03T13:49:55;26.30;35.70
25108;DHT22;13090;53.422;7.670;2022-09-03T13:55:06;26.30;36.60
25108;DHT22;13090;53.422;7.670;2022-09-03T14:00:12;26.30;36.80
25108;DHT22;13090;53.422;7.670;2022-09-03T14:05:25;26.30;37.10
25108;DHT22;13090;53.422;7.670;2022-09-03T14:10:43;26.40;36.50
25108;DHT22;13090;53.422;7.670;2022-09-03T14:15:57;26.30;36.40
25108;DHT22;13090;53.422;7.670;2022-09-03T14:21:09;26.20;36.40
25108;DHT22;13090;53.422;7.670;2022-09-03T14:26:17;26.20;36.60
25108;DHT22;13090;53.422;7.670;2022-09-03T14:37:40;26.20;36.60
25108;DHT22;13090;53.422;7.670;2022-09-03T14:43:01;26.00;36.50
25108;DHT22;13090;53.422;7.670;2022-09-03T14:48:41;26.10;37.40
25108;DHT22;13090;53.422;7.670;2022-09-03T14:54:13;26.10;37.10
25108;DHT22;13090;53.422;7.670;2022-09-03T14:59:39;26.10;36.80
25108;DHT22;13090;53.422;7.670;2022-09-03T15:04:55;26.10;37.60
25108;DHT22;13090;53.422;7.670;2022-09-03T15:10:11;26.10;37.10
25108;DHT22;13090;53.422;7.670;2022-09-03T15:15:20;26.10;36.80
25108;DHT22;13090;53.422;7.670;2022-09-03T15:20:39;26.00;36.80
25108;DHT22;13090;53.422;7.670;2022-09-03T15:26:09;25.90;36.80
25108;DHT22;13090;53.422;7.670;2022-09-03T15:31:21;25.90;37.00
25108;DHT22;13090;53.422;7.670;2022-09-03T15:36:27;25.90;36.90
25108;DHT22;13090;53.422;7.670;2022-09-03T15:41:40;25.80;37.00
25108;DHT22;13090;53.422;7.670;2022-09-03T15:46:53;25.80;37.70
25108;DHT22;13090;53.422;7.670;2022-09-03T15:52:05;25.80;36.90
25108;DHT22;13090;53.422;7.670;2022-09-03T15:57:16;25.70;36.80
25108;DHT22;13090;53.422;7.670;2022-09-03T16:02:22;25.60;36.90
25108;DHT22;13090;53.422;7.670;2022-09-03T16:07:31;25.60;37.30
25108;DHT22;13090;53.422;7.670;2022-09-03T16:12:51;25.60;37.30
25108;DHT22;13090;53.422;7.670;2022-09-03T16:18:02;25.60;37.90
25108;DHT22;13090;53.422;7.670;2022-09-03T16:23:10;25.50;37.60
25108;DHT22;13090;53.422;7.670;2022-09-03T16:28:19;25.40;37.50
25108;DHT22;13090;53.422;7.670;2022-09-03T16:33:32;25.40;37.50
25108;DHT22;13090;53.422;7.670;2022-09-03T16:38:45;25.30;37.30
25108;DHT22;13090;53.422;7.670;2022-09-03T16:43:59;25.20;37.50
25108;DHT22;13090;53.422;7.670;2022-09-03T16:49:22;25.20;37.60
25108;DHT22;13090;53.422;7.670;2022-09-03T16:54:46;25.10;38.00
25108;DHT22;13090;53.422;7.670;2022-09-03T17:00:07;25.00;38.00
25108;DHT22;13090;53.422;7.670;2022-09-03T17:05:44;25.00;37.90
25108;DHT22;13090;53.422;7.670;2022-09-03T17:10:57;24.90;38.20
25108;DHT22;13090;53.422;7.670;2022-09-03T17:16:10;24.80;38.30
25108;DHT22;13090;53.422;7.670;2022-09-03T17:21:35;24.70;38.60
25108;DHT22;13090;53.422;7.670;2022-09-03T17:26:48;24.60;38.60
25108;DHT22;13090;53.422;7.670;2022-09-03T17:32:02;24.50;39.10
25108;DHT22;13090;53.422;7.670;2022-09-03T17:37:18;24.40;39.40
25108;DHT22;13090;53.422;7.670;2022-09-03T17:42:28;24.30;39.90
25108;DHT22;13090;53.422;7.670;2022-09-03T17:47:58;24.10;40.00
25108;DHT22;13090;53.422;7.670;2022-09-03T17:53:11;23.90;40.30
25108;DHT22;13090;53.422;7.670;2022-09-03T17:58:21;23.70;40.70
25108;DHT22;13090;53.422;7.670;2022-09-03T18:03:31;23.50;41.00
25108;DHT22;13090;53.422;7.670;2022-09-03T18:08:45;23.30;41.20
25108;DHT22;13090;53.422;7.670;2022-09-03T18:14:00;23.00;41.50
25108;DHT22;13090;53.422;7.670;2022-09-03T18:19:13;22.80;41.90
25108;DHT22;13090;53.422;7.670;2022-09-03T18:24:26;22.70;42.30
25108;DHT22;13090;53.422;7.670;2022-09-03T18:29:32;22.50;42.60
25108;DHT22;13090;53.422;7.670;2022-09-03T18:34:40;22.40;42.90
25108;DHT22;13090;53.422;7.670;2022-09-03T18:39:45;22.30;43.00
25108;DHT22;13090;53.422;7.670;2022-09-03T18:44:59;22.20;43.20
25108;DHT22;13090;53.422;7.670;2022-09-03T18:50:26;22.20;43.60
25108;DHT22;13090;53.422;7.670;2022-09-03T18:55:40;22.10;43.60
25108;DHT22;13090;53.422;7.670;2022-09-03T19:00:53;22.00;43.60
25108;DHT22;13090;53.422;7.670;2022-09-03T19:06:11;22.00;44.10
25108;DHT22;13090;53.422;7.670;2022-09-03T19:11:25;21.80;44.20
25108;DHT22;13090;53.422;7.670;2022-09-03T19:16:37;21.80;44.50
25108;DHT22;13090;53.422;7.670;2022-09-03T19:21:46;21.70;44.30
25108;DHT22;13090;53.422;7.670;2022-09-03T19:26:58;21.70;44.50
25108;DHT22;13090;53.422;7.670;2022-09-03T19:32:32;21.70;44.60
25108;DHT22;13090;53.422;7.670;2022-09-03T19:37:50;21.70;44.50
25108;DHT22;13090;53.422;7.670;2022-09-03T19:43:03;21.60;44.80
25108;DHT22;13090;53.422;7.670;2022-09-03T19:48:15;21.50;44.80
25108;DHT22;13090;53.422;7.670;2022-09-03T19:53:22;21.40;45.10
25108;DHT22;13090;53.422;7.670;2022-09-03T19:58:28;21.30;45.30
25108;DHT22;13090;53.422;7.670;2022-09-03T20:03:44;21.10;46.00
25108;DHT22;13090;53.422;7.670;2022-09-03T20:08:49;21.00;46.30
25108;DHT22;13090;53.422;7.670;2022-09-03T20:13:53;21.00;46.40
25108;DHT22;13090;53.422;7.670;2022-09-03T20:19:06;20.90;46.30
25108;DHT22;13090;53.422;7.670;2022-09-03T20:24:24;20.90;46.30
25108;DHT22;13090;53.422;7.670;2022-09-03T20:29:55;20.80;46.20
25108;DHT22;13090;53.422;7.670;2022-09-03T20:35:09;20.70;46.30
25108;DHT22;13090;53.422;7.670;2022-09-03T20:40:22;20.70;46.40
25108;DHT22;13090;53.422;7.670;2022-09-03T20:45:32;20.60;46.50
25108;DHT22;13090;53.422;7.670;2022-09-03T20:50:52;20.50;46.40
25108;DHT22;13090;53.422;7.670;2022-09-03T20:56:02;20.40;46.50
25108;DHT22;13090;53.422;7.670;2022-09-03T21:01:09;20.30;46.30
25108;DHT22;13090;53.422;7.670;2022-09-03T21:06:26;20.30;46.40
25108;DHT22;13090;53.422;7.670;2022-09-03T21:11:38;20.20;46.50
25108;DHT22;13090;53.422;7.670;2022-09-03T21:16:47;20.20;46.50
25108;DHT22;13090;53.422;7.670;2022-09-03T21:21:59;20.10;46.50
25108;DHT22;13090;53.422;7.670;2022-09-03T21:27:08;20.00;46.70
25108;DHT22;13090;53.422;7.670;2022-09-03T21:32:17;20.00;46.70
25108;DHT22;13090;53.422;7.670;2022-09-03T21:37:21;19.90;46.60
25108;DHT22;13090;53.422;7.670;2022-09-03T21:42:38;19.90;46.90
25108;DHT22;13090;53.422;7.670;2022-09-03T21:47:47;19.80;47.00
25108;DHT22;13090;53.422;7.670;2022-09-03T21:52:53;19.80;47.00
25108;DHT22;13090;53.422;7.670;2022-09-03T21:58:11;19.80;47.20
25108;DHT22;13090;53.422;7.670;2022-09-03T22:03:16;19.70;47.40
25108;DHT22;13090;53.422;7.670;2022-09-03T22:08:23;19.70;47.40
25108;DHT22;13090;53.422;7.670;2022-09-03T22:13:34;19.60;47.50
25108;DHT22;13090;53.422;7.670;2022-09-03T22:18:41;19.60;47.60
25108;DHT22;13090;53.422;7.670;2022-09-03T22:23:55;19.60;47.50
25108;DHT22;13090;53.422;7.670;2022-09-03T22:29:06;19.60;47.60
25108;DHT22;13090;53.422;7.670;2022-09-03T22:34:20;19.70;47.80
25108;DHT22;13090;53.422;7.670;2022-09-03T22:39:31;19.70;47.70
25108;DHT22;13090;53.422;7.670;2022-09-03T22:45:02;19.70;47.70
25108;DHT22;13090;53.422;7.670;2022-09-03T22:50:13;19.70;47.80
25108;DHT22;13090;53.422;7.670;2022-09-03T22:55:19;19.70;47.70
25108;DHT22;13090;53.422;7.670;2022-09-03T23:00:23;19.70;47.70
25108;DHT22;13090;53.422;7.670;2022-09-03T23:05:39;19.70;47.80
25108;DHT22;13090;53.422;7.670;2022-09-03T23:10:57;19.70;47.80
25108;DHT22;13090;53.422;7.670;2022-09-03T23:16:11;19.70;47.80
25108;DHT22;13090;53.422;7.670;2022-09-03T23:21:21;19.60;48.10
25108;DHT22;13090;53.422;7.670;2022-09-03T23:26:34;19.50;48.00
25108;DHT22;13090;53.422;7.670;2022-09-03T23:31:39;19.50;48.20
25108;DHT22;13090;53.422;7.670;2022-09-03T23:37:05;19.40;48.20
25108;DHT22;13090;53.422;7.670;2022-09-03T23:42:40;19.40;48.50
25108;DHT22;13090;53.422;7.670;2022-09-03T23:47:52;19.30;48.40
25108;DHT22;13090;53.422;7.670;2022-09-03T23:53:09;19.20;48.60
25108;DHT22;13090;53.422;7.670;2022-09-03T23:58:21;19.10;49.00
